地図

経路データ

SID SEASON NUMBER BASIN SUBBASIN NAME ISO_TIME NATURE LAT LON WMO_WIND WMO_PRES WMO_AGENCY TRACK_TYPE DIST2LAND LANDFALL IFLAG USA_AGENCY USA_ATCF_ID USA_LAT USA_LON USA_RECORD USA_STATUS USA_WIND USA_PRES USA_SSHS USA_R34_NE USA_R34_SE USA_R34_SW USA_R34_NW USA_R50_NE USA_R50_SE USA_R50_SW USA_R50_NW USA_R64_NE USA_R64_SE USA_R64_SW USA_R64_NW USA_POCI USA_ROCI USA_RMW USA_EYE TOKYO_LAT TOKYO_LON TOKYO_GRADE TOKYO_WIND TOKYO_PRES TOKYO_R50_DIR TOKYO_R50_LONG TOKYO_R50_SHORT TOKYO_R30_DIR TOKYO_R30_LONG TOKYO_R30_SHORT TOKYO_LAND CMA_LAT CMA_LON CMA_CAT CMA_WIND CMA_PRES HKO_LAT HKO_LON HKO_CAT HKO_WIND HKO_PRES NEWDELHI_LAT NEWDELHI_LON NEWDELHI_GRADE NEWDELHI_WIND NEWDELHI_PRES NEWDELHI_CI NEWDELHI_DP NEWDELHI_POCI REUNION_LAT REUNION_LON REUNION_TYPE REUNION_WIND REUNION_PRES REUNION_TNUM REUNION_CI REUNION_RMW REUNION_R34_NE REUNION_R34_SE REUNION_R34_SW REUNION_R34_NW REUNION_R50_NE REUNION_R50_SE REUNION_R50_SW REUNION_R50_NW REUNION_R64_NE REUNION_R64_SE REUNION_R64_SW REUNION_R64_NW BOM_LAT BOM_LON BOM_TYPE BOM_WIND BOM_PRES BOM_TNUM BOM_CI BOM_RMW BOM_R34_NE BOM_R34_SE BOM_R34_SW BOM_R34_NW BOM_R50_NE BOM_R50_SE BOM_R50_SW BOM_R50_NW BOM_R64_NE BOM_R64_SE BOM_R64_SW BOM_R64_NW BOM_ROCI BOM_POCI BOM_EYE BOM_POS_METHOD BOM_PRES_METHOD NADI_LAT NADI_LON NADI_CAT NADI_WIND NADI_PRES WELLINGTON_LAT WELLINGTON_LON WELLINGTON_WIND WELLINGTON_PRES DS824_LAT DS824_LON DS824_STAGE DS824_WIND DS824_PRES TD9636_LAT TD9636_LON TD9636_STAGE TD9636_WIND TD9636_PRES TD9635_LAT TD9635_LON TD9635_WIND TD9635_PRES TD9635_ROCI NEUMANN_LAT NEUMANN_LON NEUMANN_CLASS NEUMANN_WIND NEUMANN_PRES MLC_LAT MLC_LON MLC_CLASS MLC_WIND MLC_PRES USA_GUST BOM_GUST BOM_GUST_PER REUNION_GUST REUNION_GUST_PER USA_SEAHGT USA_SEARAD_NE USA_SEARAD_SE USA_SEARAD_SW USA_SEARAD_NW STORM_SPEED STORM_DIR
1992279N10097 1992 104 NI BB NOT_NAMED 1992-10-04 12:00:00 NR 10.0000 96.8000 main 187 187 O_____________ jtwc_io IO071992 10.0000 96.8000 15 -1 13 280
1992279N10097 1992 104 NI BB NOT_NAMED 1992-10-04 15:00:00 NR 10.1102 96.1526 main 252 252 P_____________ IO071992 10.1102 96.1526 15 -1 13 279
1992279N10097 1992 104 NI BB NOT_NAMED 1992-10-04 18:00:00 NR 10.2000 95.5000 main 328 328 O_____________ jtwc_io IO071992 10.2000 95.5000 15 -1 13 277
1992279N10097 1992 104 NI BB NOT_NAMED 1992-10-04 21:00:00 NR 10.2574 94.8424 main 405 405 P_____________ IO071992 10.2574 94.8424 15 -1 13 274
1992279N10097 1992 104 NI BB NOT_NAMED 1992-10-05 00:00:00 NR 10.3000 94.2000 main 470 470 O_____________ jtwc_io IO071992 10.3000 94.2000 15 -1 12 275
1992279N10097 1992 104 NI BB NOT_NAMED 1992-10-05 03:00:00 NR 10.3573 93.5925 main 536 536 P_____________ IO071992 10.3573 93.5925 17 -1 12 275
1992279N10097 1992 104 NI BB NOT_NAMED 1992-10-05 06:00:00 NR 10.4000 93.0000 main 589 589 O_____________ jtwc_io IO071992 10.4000 93.0000 20 -1 12 272
1992279N10097 1992 104 NI BB NOT_NAMED 1992-10-05 09:00:00 NR 10.4074 92.4000 main 619 619 P_____________ IO071992 10.4074 92.4000 20 -1 12 270
1992279N10097 1992 104 NI BB NOT_NAMED 1992-10-05 12:00:00 NR 10.4000 91.8000 main 655 655 O_____________ jtwc_io IO071992 10.4000 91.8000 20 -1 12 270
1992279N10097 1992 104 NI BB NOT_NAMED 1992-10-05 15:00:00 NR 10.4074 91.1926 main 695 695 P_____________ IO071992 10.4074 91.1926 20 -1 12 270
1992279N10097 1992 104 NI BB NOT_NAMED 1992-10-05 18:00:00 NR 10.4000 90.6000 main 731 731 O_____________ jtwc_io IO071992 10.4000 90.6000 20 -1 11 266
1992279N10097 1992 104 NI BB NOT_NAMED 1992-10-05 21:00:00 NR 10.3274 90.0348 main 778 778 P_____________ IO071992 10.3274 90.0348 20 -1 11 265
1992279N10097 1992 104 NI BB NOT_NAMED 1992-10-06 00:00:00 NR 10.3000 89.5000 main 813 813 O_____________ jtwc_io IO071992 10.3000 89.5000 20 -1 11 273
1992279N10097 1992 104 NI BB NOT_NAMED 1992-10-06 03:00:00 NR 10.3825 88.9700 main 841 809 P_____________ IO071992 10.3825 88.9700 22 -1 10 287
1992279N10097 1992 104 NI BB NOT_NAMED 1992-10-06 06:00:00 NR 10.6000 88.5000 main 809 783 O_____________ jtwc_io IO071992 10.6000 88.5000 25 -1 10 305
1992279N10097 1992 104 NI BB NOT_NAMED 1992-10-06 09:00:00 NR 10.9624 88.1126 main 788 773 P_____________ IO071992 10.9624 88.1126 25 -1 11 319
1992279N10097 1992 104 NI BB NOT_NAMED 1992-10-06 12:00:00 NR 11.4000 87.8000 main 777 768 O_____________ jtwc_io IO071992 11.4000 87.8000 25 -1 10 326
1992279N10097 1992 104 NI BB NOT_NAMED 1992-10-06 15:00:00 NR 11.8149 87.5274 main 769 729 P_____________ IO071992 11.8149 87.5274 25 -1 9 329
1992279N10097 1992 104 NI BB NOT_NAMED 1992-10-06 18:00:00 NR 12.2000 87.3000 main 729 691 O_____________ jtwc_io IO071992 12.2000 87.3000 25 -1 8 329
1992279N10097 1992 104 NI BB NOT_NAMED 1992-10-06 21:00:00 NR 12.5300 87.0924 main 691 652 P_____________ IO071992 12.5300 87.0924 27 -1 7 327
1992279N10097 1992 104 NI BB NOT_NAMED 1992-10-07 00:00:00 NR 12.8000 86.9000 main 652 621 O_____________ jtwc_io IO071992 12.8000 86.9000 30 -1 6 322
1992279N10097 1992 104 NI BB NOT_NAMED 1992-10-07 03:00:00 NR 13.0150 86.7074 main 621 590 P_____________ IO071992 13.0150 86.7074 30 -1 6 316
1992279N10097 1992 104 NI BB NOT_NAMED 1992-10-07 06:00:00 NR 13.2000 86.5000 main 590 559 O_____________ jtwc_io IO071992 13.2000 86.5000 30 -1 6 314
1992279N10097 1992 104 NI BB NOT_NAMED 1992-10-07 09:00:00 NR 13.4149 86.2800 main 559 520 P_____________ IO071992 13.4149 86.2800 30 -1 6 309
1992279N10097 1992 104 NI BB NOT_NAMED 1992-10-07 12:00:00 NR 13.6000 86.0000 main 520 480 O_____________ jtwc_io IO071992 13.6000 86.0000 30 -1 7 295
1992279N10097 1992 104 NI BB NOT_NAMED 1992-10-07 15:00:00 NR 13.7150 85.6224 main 480 441 P_____________ IO071992 13.7150 85.6224 32 -1 8 284
1992279N10097 1992 104 NI BB NOT_NAMED 1992-10-07 18:00:00 NR 13.8000 85.2000 main 441 404 O_____________ jtwc_io IO071992 13.8000 85.2000 35 0 8 282
1992279N10097 1992 104 NI BB NOT_NAMED 1992-10-07 21:00:00 NR 13.8925 84.7924 main 404 368 P_____________ IO071992 13.8925 84.7924 37 0 8 284
1992279N10097 1992 104 NI BB NOT_NAMED 1992-10-08 00:00:00 NR 14.0000 84.4000 main 368 339 O_____________ jtwc_io IO071992 14.0000 84.4000 40 0 8 288
1992279N10097 1992 104 NI BB NOT_NAMED 1992-10-08 03:00:00 NR 14.1199 84.0498 main 334 298 P_____________ IO071992 14.1199 84.0498 42 0 7 294
1992279N10097 1992 104 NI BB NOT_NAMED 1992-10-08 06:00:00 NR 14.3000 83.7000 main 298 248 O_____________ jtwc_io IO071992 14.3000 83.7000 45 0 9 302
1992279N10097 1992 104 NI BB NOT_NAMED 1992-10-08 09:00:00 NR 14.5775 83.3075 main 248 198 P_____________ IO071992 14.5775 83.3075 45 0 10 308
1992279N10097 1992 104 NI BB NOT_NAMED 1992-10-08 12:00:00 NR 14.9000 82.9000 main 198 148 O_____________ jtwc_io IO071992 14.9000 82.9000 45 0 10 308
1992279N10097 1992 104 NI BB NOT_NAMED 1992-10-08 15:00:00 NR 15.1924 82.4998 main 148 99 P_____________ IO071992 15.1924 82.4998 45 0 10 308
1992279N10097 1992 104 NI BB NOT_NAMED 1992-10-08 18:00:00 NR 15.5000 82.1000 main 99 55 O_____________ jtwc_io IO071992 15.5000 82.1000 45 0 10 309
1992279N10097 1992 104 NI BB NOT_NAMED 1992-10-08 21:00:00 NR 15.8199 81.7072 main 55 10 P_____________ IO071992 15.8199 81.7072 42 0 10 312
1992279N10097 1992 104 NI BB NOT_NAMED 1992-10-09 00:00:00 NR 16.2000 81.3000 main 10 0 O_____________ jtwc_io IO071992 16.2000 81.3000 40 0 12 317
1992279N10097 1992 104 NI BB NOT_NAMED 1992-10-09 03:00:00 NR 16.6623 80.8796 main 0 0 P_____________ IO071992 16.6623 80.8796 35 0 13 319
1992279N10097 1992 104 NI BB NOT_NAMED 1992-10-09 06:00:00 NR 17.2000 80.4000 main 0 0 O_____________ jtwc_io IO071992 17.2000 80.4000 30 -1 15 318
1992279N10097 1992 104 NI BB NOT_NAMED 1992-10-09 09:00:00 NR 17.7880 79.8285 main 0 0 P_____________ IO071992 17.7880 79.8285 27 -1 17 316
1992279N10097 1992 104 NI BB NOT_NAMED 1992-10-09 12:00:00 NR 18.4000 79.2000 main 0 O_____________ jtwc_io IO071992 18.4000 79.2000 25 -1 17 316

IBTrACS Databaseについて

本データベースは、米国NOAAが公開する1842年以降の世界の熱帯低気圧のベストトラックデータアーカイブInternational Best Track Archive for Climate Stewardship (IBTrACS)を、ウェブで閲覧しやすい形式に変換したものです。

最終更新日:2021-10-21